Time;durP1;ratioP1;P1;durP2;ratioP2;P2;SDS_P1;SDS_P2;PMS_P1;PMS_P2;Temp;Humidity;BMP_temperature;BMP_pressure;BME280_temperature;BME280_humidity;BME280_pressure;Samples;Min_cycle;Max_cycle;Signal;HPM_P1;HPM_P2
2022/05/07 00:02:38;;;;;;;18.83;12.80;;;9.00;99.90;;;;;;7362705;32;20115;-62
2022/05/07 00:06:40;;;;;;;20.45;13.00;;;8.90;99.90;;;;;;7369050;32;20106;-62
2022/05/07 00:10:43;;;;;;;21.45;12.80;;;8.80;99.90;;;;;;7364503;32;20224;-63
2022/05/07 00:14:44;;;;;;;21.95;12.68;;;8.70;99.90;;;;;;7365221;32;20129;-62
2022/05/07 00:18:46;;;;;;;18.48;13.55;;;8.70;99.90;;;;;;7365071;32;20141;-62
2022/05/07 00:22:48;;;;;;;19.20;13.60;;;8.70;99.90;;;;;;7364388;32;20128;-62
2022/05/07 00:26:50;;;;;;;19.92;13.35;;;8.70;99.90;;;;;;7365025;32;20550;-62
2022/05/07 00:30:51;;;;;;;18.50;13.13;;;8.80;99.90;;;;;;7359595;32;20205;-62
2022/05/07 00:34:53;;;;;;;17.25;12.77;;;8.70;99.90;;;;;;7361993;32;20446;-61
2022/05/07 00:38:55;;;;;;;19.42;12.77;;;8.60;99.90;;;;;;7363829;32;20111;-62
2022/05/07 00:42:56;;;;;;;19.58;13.25;;;8.60;99.90;;;;;;7357424;32;20129;-61
2022/05/07 00:47:25;;;;;;;21.45;13.57;;;8.60;99.90;;;;;;7356941;32;20253;-63
2022/05/07 00:51:33;;;;;;;17.42;13.07;;;8.50;99.90;;;;;;7359479;32;20111;-63
2022/05/07 00:55:35;;;;;;;19.83;12.30;;;8.50;99.90;;;;;;7362562;32;20140;-62
2022/05/07 00:59:37;;;;;;;18.83;12.70;;;8.50;99.90;;;;;;7362382;32;20137;-62
2022/05/07 01:03:39;;;;;;;18.05;12.50;;;8.50;99.90;;;;;;7350387;32;20130;-62
2022/05/07 01:07:43;;;;;;;21.05;13.85;;;8.40;99.90;;;;;;7357937;32;20141;-62
2022/05/07 01:11:46;;;;;;;21.30;15.05;;;8.40;99.90;;;;;;7354704;32;20223;-63
2022/05/07 01:15:53;;;;;;;24.05;16.17;;;8.40;99.90;;;;;;7354211;32;20126;-62
2022/05/07 01:19:54;;;;;;;22.30;14.87;;;8.40;99.90;;;;;;7351538;32;20098;-63
2022/05/07 01:23:57;;;;;;;19.65;13.48;;;8.40;99.90;;;;;;7336659;32;20099;-63
2022/05/07 01:27:58;;;;;;;18.33;13.65;;;8.30;99.90;;;;;;7362639;32;20757;-63
2022/05/07 01:32:00;;;;;;;20.35;13.73;;;8.30;99.90;;;;;;7360525;32;20141;-59
2022/05/07 01:36:04;;;;;;;21.70;15.05;;;8.20;99.90;;;;;;7360053;32;20263;-61
2022/05/07 01:40:06;;;;;;;22.02;14.25;;;8.30;99.90;;;;;;7350344;32;20133;-62
2022/05/07 01:44:08;;;;;;;22.20;14.40;;;8.30;99.90;;;;;;7354457;32;20127;-60
2022/05/07 01:48:10;;;;;;;27.45;17.65;;;8.30;99.90;;;;;;7355875;32;20216;-60
2022/05/07 01:52:12;;;;;;;25.58;17.60;;;8.40;99.90;;;;;;7357434;32;20342;-61
2022/05/07 01:56:13;;;;;;;26.48;16.65;;;8.40;99.90;;;;;;7359277;32;20128;-62
2022/05/07 02:00:15;;;;;;;22.42;16.35;;;8.40;99.90;;;;;;7358064;32;20103;-61
2022/05/07 02:04:17;;;;;;;24.35;16.33;;;8.30;99.90;;;;;;7357786;32;20126;-61
2022/05/07 02:08:18;;;;;;;25.33;16.08;;;8.30;99.90;;;;;;7352654;32;20225;-60
2022/05/07 02:12:20;;;;;;;21.60;15.27;;;8.30;99.90;;;;;;7362749;32;20110;-61
2022/05/07 02:16:22;;;;;;;21.48;14.77;;;8.20;99.90;;;;;;7357277;32;20198;-61
2022/05/07 02:20:24;;;;;;;21.55;14.65;;;8.10;99.90;;;;;;7360399;32;20604;-61
2022/05/07 02:24:26;;;;;;;19.37;14.25;;;8.10;99.90;;;;;;7353854;32;20129;-60
2022/05/07 02:28:27;;;;;;;21.62;15.13;;;8.00;99.90;;;;;;7363282;32;20214;-61
2022/05/07 02:32:29;;;;;;;21.70;15.15;;;8.00;99.90;;;;;;7357365;32;20132;-61
2022/05/07 02:36:32;;;;;;;20.45;14.65;;;8.00;99.90;;;;;;7354738;32;20126;-60
2022/05/07 02:42:33;;;;;;;19.65;14.43;;;7.90;99.90;;;;;;7356827;32;20107;-60
2022/05/07 02:44:56;;;;;;;21.73;15.60;;;7.90;99.90;;;;;;7350483;32;20236;-61
2022/05/07 02:48:57;;;;;;;25.10;15.05;;;7.90;99.90;;;;;;7356011;32;20704;-61
2022/05/07 02:52:59;;;;;;;20.83;14.43;;;7.90;99.90;;;;;;7351317;32;20550;-60
2022/05/07 02:57:01;;;;;;;22.33;14.43;;;7.90;99.90;;;;;;7363730;32;20592;-61
2022/05/07 03:01:02;;;;;;;21.20;15.02;;;7.90;99.90;;;;;;7356097;32;20149;-60
2022/05/07 03:05:04;;;;;;;24.30;15.15;;;7.80;99.90;;;;;;7353033;32;20446;-60
2022/05/07 03:09:07;;;;;;;22.15;14.55;;;7.80;99.90;;;;;;7352599;32;20145;-59
2022/05/07 03:13:09;;;;;;;21.85;15.18;;;7.80;99.90;;;;;;7359013;32;20115;-61
2022/05/07 03:17:10;;;;;;;20.73;14.43;;;7.80;99.90;;;;;;7356499;32;20111;-60
2022/05/07 03:21:12;;;;;;;20.58;14.87;;;7.80;99.90;;;;;;7359369;32;20542;-60
2022/05/07 03:25:13;;;;;;;24.30;15.50;;;7.80;99.90;;;;;;7352209;32;20145;-61
2022/05/07 03:29:15;;;;;;;23.45;15.07;;;7.70;99.90;;;;;;7355462;32;20879;-62
2022/05/07 03:33:17;;;;;;;25.75;16.65;;;7.70;99.90;;;;;;7362714;32;20182;-60
2022/05/07 03:37:18;;;;;;;24.15;15.57;;;7.70;99.90;;;;;;7362265;32;20538;-61
2022/05/07 03:41:20;;;;;;;19.67;14.30;;;7.70;99.90;;;;;;7362884;32;20536;-60
2022/05/07 03:45:21;;;;;;;22.13;15.40;;;7.70;99.90;;;;;;7356271;32;20720;-60
2022/05/07 03:49:23;;;;;;;22.10;14.98;;;7.60;99.90;;;;;;7361798;32;20388;-60
2022/05/07 03:53:31;;;;;;;22.10;15.30;;;7.60;99.90;;;;;;7359737;32;20435;-61
2022/05/07 03:57:32;;;;;;;24.70;15.73;;;7.60;99.90;;;;;;7356377;32;20403;-60
2022/05/07 04:01:34;;;;;;;20.55;15.52;;;7.60;99.90;;;;;;7360897;32;20134;-61
2022/05/07 04:05:36;;;;;;;19.52;14.85;;;7.60;99.90;;;;;;7363762;32;20375;-60
2022/05/07 04:09:38;;;;;;;21.70;15.85;;;7.50;99.90;;;;;;7354702;32;20765;-60
2022/05/07 04:13:45;;;;;;;23.45;15.88;;;7.50;99.90;;;;;;7351520;32;20177;-61
2022/05/07 04:17:48;;;;;;;23.92;15.50;;;7.50;99.90;;;;;;7355169;32;20558;-60
2022/05/07 04:21:50;;;;;;;23.38;16.23;;;7.60;99.90;;;;;;7356391;32;20270;-60
2022/05/07 04:25:52;;;;;;;26.65;17.67;;;7.60;99.90;;;;;;7364363;32;20111;-60
2022/05/07 04:29:53;;;;;;;27.33;18.05;;;7.70;99.90;;;;;;7358503;32;20243;-59
2022/05/07 04:33:55;;;;;;;26.00;18.12;;;7.80;99.90;;;;;;7345043;32;20614;-61
2022/05/07 04:37:57;;;;;;;29.42;18.48;;;8.00;99.90;;;;;;7363726;32;20614;-60
2022/05/07 04:41:58;;;;;;;25.88;18.02;;;8.00;99.90;;;;;;7352852;32;20144;-60
2022/05/07 04:46:00;;;;;;;26.98;18.50;;;8.20;99.90;;;;;;7358425;32;20107;-60
2022/05/07 04:50:02;;;;;;;24.83;18.10;;;8.30;99.90;;;;;;7355224;32;20198;-60
2022/05/07 04:54:05;;;;;;;24.50;17.30;;;8.40;99.90;;;;;;7358112;32;20120;-60
2022/05/07 04:58:06;;;;;;;23.58;17.73;;;8.50;99.90;;;;;;7352479;32;20107;-60
2022/05/07 05:02:08;;;;;;;24.20;17.25;;;8.60;99.90;;;;;;7363395;32;20526;-60
2022/05/07 05:06:10;;;;;;;22.60;16.75;;;8.70;99.90;;;;;;7346670;32;20644;-60
2022/05/07 05:10:12;;;;;;;23.00;16.75;;;8.80;99.90;;;;;;7359011;32;20386;-61
2022/05/07 05:18:34;;;;;;;29.45;18.37;;;8.90;99.90;;;;;;7358126;32;20249;-61
2022/05/07 05:22:35;;;;;;;25.40;19.25;;;9.00;99.90;;;;;;7352575;32;20440;-60
2022/05/07 05:26:37;;;;;;;27.70;19.20;;;9.10;99.90;;;;;;7358273;32;20459;-61
2022/05/07 05:30:39;;;;;;;24.23;19.20;;;9.30;99.90;;;;;;7348611;32;20532;-62
2022/05/07 05:34:40;;;;;;;25.98;18.87;;;9.50;99.90;;;;;;7360313;32;20709;-65
2022/05/07 05:38:42;;;;;;;28.05;19.08;;;9.60;99.90;;;;;;7350598;32;20165;-64
2022/05/07 05:42:43;;;;;;;23.75;19.17;;;9.80;99.90;;;;;;7343453;32;20499;-64
2022/05/07 05:46:45;;;;;;;38.63;27.75;;;10.00;99.90;;;;;;7358392;32;20156;-63
2022/05/07 05:50:47;;;;;;;40.90;33.30;;;10.30;99.90;;;;;;7355816;32;20201;-63
2022/05/07 05:54:48;;;;;;;41.42;34.83;;;10.50;99.90;;;;;;7362475;32;20651;-62
2022/05/07 05:58:50;;;;;;;43.15;34.60;;;10.80;99.90;;;;;;7359755;32;20111;-63
2022/05/07 06:02:52;;;;;;;41.47;32.20;;;11.00;99.90;;;;;;7356012;32;20222;-63
2022/05/07 06:06:53;;;;;;;39.22;32.00;;;11.30;99.90;;;;;;7362152;32;20137;-63
2022/05/07 06:10:57;;;;;;;37.95;29.70;;;11.50;99.90;;;;;;7361560;32;20525;-65
2022/05/07 06:14:59;;;;;;;35.60;30.10;;;11.70;99.90;;;;;;7368896;32;20091;-63
2022/05/07 06:19:01;;;;;;;33.80;29.77;;;12.00;99.90;;;;;;7362787;32;20586;-63
2022/05/07 06:23:03;;;;;;;37.97;29.20;;;12.20;99.90;;;;;;7361538;32;20790;-63
2022/05/07 06:31:25;;;;;;;29.45;26.25;;;12.70;99.90;;;;;;7363198;32;20130;-64
2022/05/07 06:35:27;;;;;;;32.35;26.60;;;13.00;99.90;;;;;;7355611;32;20218;-64
2022/05/07 06:39:29;;;;;;;27.55;24.55;;;13.20;99.90;;;;;;7355832;32;20115;-65
2022/05/07 06:43:32;;;;;;;30.50;26.65;;;13.40;99.90;;;;;;7349527;32;20316;-65
2022/05/07 06:47:34;;;;;;;28.87;23.60;;;13.50;99.90;;;;;;7351519;32;20201;-63
2022/05/07 06:51:35;;;;;;;29.87;25.50;;;13.60;99.90;;;;;;7357539;32;20139;-65
2022/05/07 06:55:54;;;;;;;31.25;24.52;;;14.00;99.90;;;;;;7351545;32;20514;-64
2022/05/07 06:59:56;;;;;;;29.98;23.70;;;14.40;99.90;;;;;;7359879;32;20232;-63
2022/05/07 07:03:58;;;;;;;25.55;22.52;;;14.80;99.90;;;;;;7367725;32;20338;-64
2022/05/07 07:08:00;;;;;;;28.10;21.42;;;15.00;99.90;;;;;;7363905;32;20119;-61
2022/05/07 07:12:02;;;;;;;31.67;22.33;;;15.30;99.90;;;;;;7352562;32;20234;-61
2022/05/07 07:16:04;;;;;;;23.45;19.98;;;15.60;99.90;;;;;;7361687;32;20761;-62
2022/05/07 07:20:06;;;;;;;25.17;19.55;;;15.90;99.90;;;;;;7368421;32;20106;-61
2022/05/07 07:24:08;;;;;;;26.12;20.83;;;16.10;99.90;;;;;;7365175;32;20131;-62
2022/05/07 07:28:11;;;;;;;24.05;20.10;;;16.40;99.90;;;;;;7356551;32;20107;-63
2022/05/07 07:32:13;;;;;;;26.33;19.15;;;16.70;99.90;;;;;;7359859;32;20436;-62
2022/05/07 07:36:15;;;;;;;26.55;18.50;;;17.00;99.90;;;;;;7364741;32;20740;-63
2022/05/07 07:40:16;;;;;;;25.08;19.52;;;17.10;99.90;;;;;;7360713;32;20129;-60
2022/05/07 07:44:18;;;;;;;22.08;18.52;;;17.10;99.90;;;;;;7355536;32;20122;-61
2022/05/07 07:48:19;;;;;;;21.23;17.30;;;17.00;99.90;;;;;;7365863;32;20800;-60
2022/05/07 07:52:21;;;;;;;22.73;18.92;;;17.00;99.90;;;;;;7358033;32;20574;-60
2022/05/07 07:56:23;;;;;;;26.75;18.77;;;17.10;99.90;;;;;;7358830;32;20470;-60
2022/05/07 08:00:26;;;;;;;25.55;17.37;;;17.10;99.90;;;;;;7359121;32;20194;-59
2022/05/07 08:04:27;;;;;;;19.15;14.63;;;17.30;99.90;;;;;;7347167;32;20138;-59
2022/05/07 08:13:09;;;;;;;19.65;15.05;;;17.60;99.90;;;;;;7281783;32;20123;-62
2022/05/07 08:17:11;;;;;;;16.80;14.80;;;17.90;99.90;;;;;;7316918;32;20103;-62
2022/05/07 08:21:13;;;;;;;29.85;17.17;;;18.10;99.90;;;;;;7363020;32;20563;-61
2022/05/07 08:25:14;;;;;;;26.80;16.85;;;18.20;99.90;;;;;;7358813;32;20247;-62
2022/05/07 08:29:16;;;;;;;18.42;16.17;;;18.30;99.90;;;;;;7353143;32;20123;-64
2022/05/07 08:33:18;;;;;;;21.77;17.48;;;18.60;99.90;;;;;;7359687;32;20115;-62
2022/05/07 08:37:19;;;;;;;23.02;18.98;;;19.10;99.90;;;;;;7356744;32;20111;-62
2022/05/07 08:41:22;;;;;;;20.40;17.20;;;19.80;99.90;;;;;;7356512;32;20556;-63
2022/05/07 08:45:23;;;;;;;22.83;17.50;;;20.60;99.90;;;;;;7343961;32;20292;-63
2022/05/07 08:49:25;;;;;;;19.65;15.88;;;21.20;99.90;;;;;;7353716;32;20108;-64
2022/05/07 08:53:27;;;;;;;18.92;16.67;;;21.60;99.90;;;;;;7360965;32;20125;-63
2022/05/07 08:57:32;;;;;;;21.90;15.43;;;21.80;99.90;;;;;;7351760;32;20812;-66
2022/05/07 09:01:33;;;;;;;18.52;13.82;;;22.50;99.90;;;;;;7362513;32;20209;-63
2022/05/07 09:05:38;;;;;;;19.30;13.60;;;22.90;99.20;;;;;;7345086;32;20551;-64
2022/05/07 09:09:50;;;;;;;17.85;13.60;;;23.40;99.90;;;;;;7356294;32;20104;-63
2022/05/07 09:14:04;;;;;;;17.85;11.95;;;23.40;95.60;;;;;;7361315;32;20541;-65
2022/05/07 09:18:16;;;;;;;19.80;13.00;;;23.70;96.00;;;;;;7340107;32;20163;-60
2022/05/07 09:22:19;;;;;;;18.50;12.75;;;23.70;95.00;;;;;;7358233;32;20103;-59
2022/05/07 09:26:30;;;;;;;18.40;13.18;;;23.60;95.40;;;;;;7362142;32;20597;-63
2022/05/07 09:30:32;;;;;;;21.58;14.82;;;23.90;93.00;;;;;;7358587;32;20103;-63
2022/05/07 09:39:04;;;;;;;20.92;14.95;;;24.70;93.20;;;;;;7358732;32;20587;-63
2022/05/07 09:43:09;;;;;;;18.52;14.18;;;24.40;89.50;;;;;;7359824;32;20134;-63
2022/05/07 09:47:12;;;;;;;20.10;14.43;;;24.50;90.20;;;;;;7363794;32;20430;-62
2022/05/07 09:51:14;;;;;;;18.15;13.15;;;24.40;89.30;;;;;;7350927;32;20495;-63
2022/05/07 09:59:38;;;;;;;18.65;12.70;;;23.90;89.60;;;;;;7360675;32;20256;-63
2022/05/07 10:04:05;;;;;;;20.17;11.80;;;23.90;89.20;;;;;;7355934;32;20414;-62
2022/05/07 10:08:17;;;;;;;;;;;24.10;91.90;;;;;;7347025;32;20248;-64
2022/05/07 10:12:21;;;;;;;20.42;11.95;;;24.10;88.40;;;;;;7355285;32;20375;-65
2022/05/07 10:16:23;;;;;;;19.50;10.90;;;24.50;85.80;;;;;;7357404;32;20222;-63
2022/05/07 10:20:32;;;;;;;20.10;12.05;;;24.80;89.00;;;;;;7358487;32;20213;-65
2022/05/07 10:24:34;;;;;;;17.37;10.38;;;24.90;88.60;;;;;;7359955;32;20103;-64
2022/05/07 10:28:41;;;;;;;19.75;12.00;;;24.70;83.10;;;;;;7363890;32;20506;-62
2022/05/07 10:32:57;;;;;;;21.08;12.73;;;24.70;79.50;;;;;;7360007;32;20134;-62
2022/05/07 10:37:00;;;;;;;18.42;12.70;;;24.00;81.70;;;;;;7357549;32;20241;-63
2022/05/07 10:41:07;;;;;;;21.55;13.10;;;24.10;82.80;;;;;;7353630;32;20126;-62
2022/05/07 10:45:21;;;;;;;22.48;12.37;;;23.70;80.90;;;;;;7357072;32;20583;-62
2022/05/07 10:49:22;;;;;;;20.58;12.77;;;23.80;81.50;;;;;;7361284;32;20122;-56
2022/05/07 10:53:37;;;;;;;21.15;13.88;;;23.50;84.80;;;;;;7360427;32;20226;-57
2022/05/07 10:57:43;;;;;;;18.02;12.55;;;23.10;81.80;;;;;;7355104;32;20142;-56
2022/05/07 11:01:46;;;;;;;19.73;13.60;;;23.40;90.40;;;;;;7360399;32;20225;-61
2022/05/07 11:05:48;;;;;;;23.42;16.20;;;23.30;88.50;;;;;;7360803;32;20198;-62
2022/05/07 11:09:51;;;;;;;178.38;157.35;;;23.70;86.20;;;;;;7365038;32;20110;-62
2022/05/07 11:13:57;;;;;;;19.20;13.68;;;24.00;85.80;;;;;;7359952;32;20139;-61
2022/05/07 11:17:59;;;;;;;14.47;10.70;;;24.30;85.30;;;;;;7360237;32;20137;-63
2022/05/07 11:22:03;;;;;;;16.20;12.05;;;24.20;86.20;;;;;;7360690;32;20181;-62
2022/05/07 11:26:17;;;;;;;17.60;13.00;;;24.10;82.50;;;;;;7357961;32;20145;-63
2022/05/07 11:30:19;;;;;;;16.92;11.68;;;24.20;78.90;;;;;;7361433;32;20837;-63
2022/05/07 11:34:32;;;;;;;29.30;21.10;;;24.00;83.70;;;;;;7366683;32;20106;-62
2022/05/07 11:38:37;;;;;;;19.25;11.32;;;23.50;87.10;;;;;;7361078;32;20125;-63
2022/05/07 11:42:39;;;;;;;16.17;12.37;;;22.90;86.40;;;;;;7363905;32;20548;-63
2022/05/07 11:47:00;;;;;;;18.98;12.85;;;22.40;86.50;;;;;;7358552;32;20187;-62
2022/05/07 11:51:02;;;;;;;16.87;10.95;;;21.90;88.20;;;;;;7356762;32;20206;-63
2022/05/07 11:55:05;;;;;;;13.30;11.15;;;22.10;91.40;;;;;;7368356;32;20111;-57
2022/05/07 11:59:07;;;;;;;12.70;8.25;;;22.50;88.10;;;;;;7364128;32;20227;-58
2022/05/07 12:03:09;;;;;;;14.38;10.32;;;22.80;91.20;;;;;;7368187;32;20784;-58
2022/05/07 12:07:12;;;;;;;15.13;10.90;;;22.60;90.50;;;;;;7367350;32;20173;-63
2022/05/07 12:11:13;;;;;;;12.48;9.38;;;23.00;88.80;;;;;;7359101;32;20922;-61
2022/05/07 12:15:16;;;;;;;13.25;7.87;;;22.90;84.40;;;;;;7359730;32;20974;-61
2022/05/07 12:19:17;;;;;;;13.00;8.00;;;22.90;85.00;;;;;;7363878;32;20519;-60
2022/05/07 12:32:01;;;;;;;15.13;11.00;;;22.40;84.20;;;;;;7359821;32;20798;-60
2022/05/07 12:36:05;;;;;;;13.73;8.77;;;22.20;83.60;;;;;;7362247;32;20250;-59
2022/05/07 12:40:07;;;;;;;11.05;7.30;;;22.60;90.40;;;;;;7367936;32;20172;-61
2022/05/07 12:44:09;;;;;;;11.70;8.40;;;23.10;86.80;;;;;;7367529;32;20572;-61
2022/05/07 12:48:11;;;;;;;12.93;8.68;;;23.40;81.30;;;;;;7350058;32;20153;-60
2022/05/07 12:52:13;;;;;;;10.63;6.55;;;23.50;79.60;;;;;;7356077;32;20193;-60
2022/05/07 12:56:15;;;;;;;13.98;8.00;;;23.80;83.00;;;;;;7355528;32;20227;-58
2022/05/07 13:00:17;;;;;;;17.30;9.30;;;24.00;84.90;;;;;;7359740;32;20113;-63
2022/05/07 13:04:22;;;;;;;12.27;8.93;;;23.80;82.40;;;;;;7360926;32;20123;-62
2022/05/07 13:08:23;;;;;;;15.88;10.50;;;23.80;82.50;;;;;;7360709;32;20111;-62
2022/05/07 13:12:26;;;;;;;10.48;8.75;;;23.80;79.10;;;;;;7367808;32;20668;-63
2022/05/07 13:16:29;;;;;;;12.07;10.18;;;23.70;84.00;;;;;;7365962;32;20127;-61
2022/05/07 13:20:31;;;;;;;17.00;9.85;;;23.40;84.50;;;;;;7369729;32;20461;-62
2022/05/07 13:24:32;;;;;;;12.60;9.25;;;22.90;87.70;;;;;;7363667;32;20172;-62
2022/05/07 13:28:34;;;;;;;13.30;9.32;;;22.60;89.30;;;;;;7365386;32;20246;-63
2022/05/07 13:32:36;;;;;;;17.45;11.63;;;22.30;89.40;;;;;;7357624;32;20260;-63
2022/05/07 13:36:38;;;;;;;19.17;11.12;;;22.50;88.10;;;;;;7350439;32;20137;-62
2022/05/07 13:40:40;;;;;;;18.00;11.65;;;22.30;89.70;;;;;;7356148;32;20158;-64
2022/05/07 13:44:42;;;;;;;15.05;9.63;;;22.10;89.20;;;;;;7354739;32;20715;-66
2022/05/07 13:48:44;;;;;;;16.52;11.15;;;22.30;90.50;;;;;;7339742;32;20853;-63
2022/05/07 13:52:46;;;;;;;12.68;8.80;;;22.70;88.00;;;;;;7361100;32;20178;-63
2022/05/07 13:56:48;;;;;;;14.93;8.82;;;23.00;87.60;;;;;;7360001;32;20442;-63
2022/05/07 14:00:51;;;;;;;14.93;8.73;;;22.60;83.70;;;;;;7354207;32;20114;-63
2022/05/07 14:04:53;;;;;;;12.80;8.30;;;22.40;86.40;;;;;;7363070;32;20103;-64
2022/05/07 14:08:54;;;;;;;11.35;8.18;;;22.50;89.50;;;;;;7355908;32;20107;-63
2022/05/07 14:12:56;;;;;;;13.05;8.65;;;22.60;83.60;;;;;;7360688;32;20190;-62
2022/05/07 14:16:57;;;;;;;11.23;7.05;;;22.50;84.90;;;;;;7360279;32;20142;-63
2022/05/07 14:20:59;;;;;;;11.75;6.72;;;22.10;85.10;;;;;;7351493;32;20107;-64
2022/05/07 14:25:02;;;;;;;11.68;5.78;;;21.90;83.50;;;;;;7353680;32;20281;-63
2022/05/07 14:29:05;;;;;;;10.00;5.78;;;21.70;86.20;;;;;;7355551;32;20675;-64
2022/05/07 14:33:08;;;;;;;6.87;4.97;;;21.70;82.10;;;;;;7358676;32;20317;-65
2022/05/07 14:37:09;;;;;;;7.47;5.78;;;21.50;88.10;;;;;;7359478;32;20221;-64
2022/05/07 14:41:12;;;;;;;10.18;6.60;;;21.40;89.60;;;;;;7356179;32;20106;-64
2022/05/07 14:45:14;;;;;;;13.85;7.00;;;21.20;91.20;;;;;;7355526;32;20104;-64
2022/05/07 14:49:16;;;;;;;12.27;6.37;;;21.30;91.00;;;;;;7354736;32;20351;-65
2022/05/07 14:53:18;;;;;;;12.10;6.82;;;21.00;90.20;;;;;;7351189;32;20099;-64
2022/05/07 14:57:19;;;;;;;12.52;7.05;;;21.00;90.30;;;;;;7349275;32;20158;-60
2022/05/07 15:01:21;;;;;;;17.77;8.32;;;20.90;92.10;;;;;;7341920;32;20577;-58
2022/05/07 15:05:23;;;;;;;11.05;8.25;;;20.70;93.40;;;;;;7357562;32;20186;-64
2022/05/07 15:13:49;;;;;;;10.82;6.97;;;20.30;95.50;;;;;;7349903;32;20442;-64
2022/05/07 15:17:51;;;;;;;7.93;6.15;;;20.10;94.80;;;;;;7362052;32;20261;-65
2022/05/07 15:21:53;;;;;;;9.77;5.78;;;20.00;95.90;;;;;;7366141;32;20551;-64
2022/05/07 15:25:55;;;;;;;6.90;4.53;;;19.90;95.60;;;;;;7330734;32;20577;-65
2022/05/07 15:29:57;;;;;;;28.58;22.95;;;20.00;96.70;;;;;;7335090;32;20240;-65
2022/05/07 15:38:20;;;;;;;10.90;7.57;;;19.50;99.00;;;;;;7344144;32;20605;-63
2022/05/07 15:42:22;;;;;;;9.90;8.02;;;19.20;99.90;;;;;;7341241;32;20182;-65
2022/05/07 15:46:26;;;;;;;12.27;8.30;;;19.00;99.90;;;;;;7351805;32;20513;-63
2022/05/07 15:50:28;;;;;;;11.55;9.15;;;18.60;99.90;;;;;;7331980;32;20245;-64
2022/05/07 15:54:30;;;;;;;9.60;7.32;;;18.40;99.90;;;;;;7340765;32;20106;-63
2022/05/07 15:58:32;;;;;;;7.80;6.40;;;18.20;99.90;;;;;;7343218;32;20202;-63
2022/05/07 16:02:33;;;;;;;7.22;5.20;;;18.00;99.90;;;;;;7348415;32;20297;-64
2022/05/07 16:06:37;;;;;;;6.37;4.53;;;17.80;99.90;;;;;;7353248;32;20253;-64
2022/05/07 16:10:59;;;;;;;5.80;4.80;;;17.60;99.90;;;;;;7348466;32;20286;-64
2022/05/07 16:15:01;;;;;;;5.25;4.18;;;17.20;99.90;;;;;;7352006;32;20567;-64
2022/05/07 16:19:03;;;;;;;6.97;5.37;;;17.10;99.90;;;;;;7352458;32;20130;-63
2022/05/07 16:27:27;;;;;;;7.55;6.57;;;16.40;99.90;;;;;;7337277;32;20590;-64
2022/05/07 16:31:28;;;;;;;8.73;6.53;;;16.20;99.90;;;;;;7355051;32;20190;-64
2022/05/07 16:35:30;;;;;;;8.00;6.35;;;16.10;99.90;;;;;;7353462;32;20220;-65
2022/05/07 16:39:33;;;;;;;12.18;6.68;;;15.90;99.90;;;;;;7351185;32;20198;-65
2022/05/07 16:43:34;;;;;;;10.00;6.35;;;15.90;99.90;;;;;;7359970;32;20462;-62
2022/05/07 16:47:36;;;;;;;11.98;7.72;;;15.80;99.90;;;;;;7354041;32;20178;-63
2022/05/07 16:51:38;;;;;;;10.73;6.90;;;15.70;99.90;;;;;;7356383;32;20119;-61
2022/05/07 16:55:40;;;;;;;17.65;13.38;;;15.50;99.90;;;;;;7360861;32;20220;-64
2022/05/07 16:59:44;;;;;;;11.68;9.43;;;15.50;99.90;;;;;;7348359;32;20222;-61
2022/05/07 17:03:46;;;;;;;17.48;14.68;;;15.40;99.90;;;;;;7344133;32;20216;-65
2022/05/07 17:07:47;;;;;;;20.73;15.52;;;15.20;99.90;;;;;;7356329;32;20520;-64
2022/05/07 17:11:49;;;;;;;19.42;15.38;;;15.00;99.90;;;;;;7351377;32;20182;-65
2022/05/07 17:15:51;;;;;;;21.05;15.52;;;15.00;99.90;;;;;;7345678;32;20193;-66
2022/05/07 17:19:53;;;;;;;18.40;16.48;;;15.00;99.90;;;;;;7353389;32;20190;-65
2022/05/07 17:23:55;;;;;;;19.73;15.65;;;15.00;99.90;;;;;;7344675;32;20219;-65
2022/05/07 17:27:57;;;;;;;17.45;15.05;;;15.00;99.90;;;;;;7351030;32;20175;-64
2022/05/07 17:31:58;;;;;;;15.23;13.50;;;14.90;99.90;;;;;;7351433;32;20212;-66
2022/05/07 17:36:00;;;;;;;15.77;13.07;;;15.00;99.90;;;;;;7350580;32;20135;-62
2022/05/07 17:40:02;;;;;;;14.55;13.05;;;15.00;99.90;;;;;;7365583;32;20095;-62
2022/05/07 17:44:05;;;;;;;17.30;14.25;;;15.00;99.90;;;;;;7358554;32;20118;-63
2022/05/07 17:52:28;;;;;;;20.60;16.62;;;14.80;99.90;;;;;;7356207;32;20209;-63
2022/05/07 17:56:30;;;;;;;18.92;13.95;;;14.70;99.90;;;;;;7357954;32;20225;-62
2022/05/07 18:00:32;;;;;;;18.62;14.75;;;14.80;99.90;;;;;;7358024;32;20103;-64
2022/05/07 18:04:34;;;;;;;15.65;13.95;;;14.80;99.90;;;;;;7359170;32;20114;-63
2022/05/07 18:08:36;;;;;;;18.08;14.23;;;14.70;99.90;;;;;;7355192;32;20107;-63
2022/05/07 18:12:38;;;;;;;19.20;14.65;;;14.70;99.90;;;;;;7357536;32;20115;-64
2022/05/07 18:16:40;;;;;;;17.87;15.93;;;14.70;99.90;;;;;;7359170;32;20165;-64
2022/05/07 18:20:42;;;;;;;20.95;17.50;;;14.60;99.90;;;;;;7361426;32;20405;-62
2022/05/07 18:24:44;;;;;;;22.85;19.65;;;14.60;99.90;;;;;;7362424;32;20103;-62
2022/05/07 18:28:45;;;;;;;21.65;17.42;;;14.60;99.90;;;;;;7357997;32;20111;-62
2022/05/07 18:32:47;;;;;;;23.15;17.27;;;14.50;99.90;;;;;;7360513;32;20194;-63
2022/05/07 18:45:35;;;;;;;24.52;19.67;;;14.60;99.90;;;;;;7351979;32;20194;-66
2022/05/07 18:49:37;;;;;;;26.87;22.40;;;14.50;99.90;;;;;;7366060;32;20334;-65
2022/05/07 18:53:38;;;;;;;28.48;21.90;;;14.50;99.90;;;;;;7369516;32;20567;-66
2022/05/07 19:02:00;;;;;;;31.98;23.23;;;14.50;99.90;;;;;;7360539;32;20220;-67
2022/05/07 19:06:05;;;;;;;28.70;22.85;;;14.40;99.90;;;;;;7364632;32;20274;-68
2022/05/07 19:10:07;;;;;;;29.70;22.15;;;14.40;99.90;;;;;;7352595;32;20219;-65
2022/05/07 19:14:11;;;;;;;32.40;25.37;;;14.30;99.90;;;;;;7366368;32;20600;-67
2022/05/07 19:18:13;;;;;;;28.92;23.48;;;14.30;99.90;;;;;;7366573;32;20133;-64
2022/05/07 19:22:15;;;;;;;30.12;23.12;;;14.30;99.90;;;;;;7366330;32;20225;-66
2022/05/07 19:26:17;;;;;;;27.40;23.08;;;14.30;99.90;;;;;;7366692;32;20941;-67
2022/05/07 19:30:19;;;;;;;28.10;24.35;;;14.30;99.90;;;;;;7363046;32;20107;-65
2022/05/07 19:34:21;;;;;;;30.58;25.05;;;14.30;99.90;;;;;;7370340;32;20129;-66
2022/05/07 19:38:22;;;;;;;34.97;25.10;;;14.20;99.90;;;;;;7365402;32;20226;-65
2022/05/07 19:42:24;;;;;;;30.08;26.62;;;14.10;99.90;;;;;;7366614;32;20160;-67
2022/05/07 19:46:27;;;;;;;31.67;26.08;;;14.00;99.90;;;;;;7364485;32;20124;-66
2022/05/07 19:50:29;;;;;;;33.22;28.77;;;14.00;99.90;;;;;;7363070;32;20118;-67
2022/05/07 19:54:30;;;;;;;30.83;25.90;;;13.90;99.90;;;;;;7363591;32;20157;-66
2022/05/07 19:58:32;;;;;;;33.45;26.35;;;13.80;99.90;;;;;;7366002;32;20879;-66
2022/05/07 20:02:34;;;;;;;35.45;26.23;;;13.70;99.90;;;;;;7361054;32;20125;-66
2022/05/07 20:06:35;;;;;;;32.35;26.85;;;13.70;99.90;;;;;;7354092;32;20125;-66
2022/05/07 20:10:42;;;;;;;33.67;28.35;;;13.60;99.90;;;;;;7361727;32;20194;-67
2022/05/07 20:14:45;;;;;;;32.97;27.48;;;13.50;99.90;;;;;;7362061;32;20136;-67
2022/05/07 20:18:46;;;;;;;36.90;31.55;;;13.40;99.90;;;;;;7355296;32;20103;-65
2022/05/07 20:22:56;;;;;;;32.72;27.48;;;13.40;99.90;;;;;;7358663;32;20957;-67
2022/05/07 20:27:02;;;;;;;30.95;27.62;;;13.40;99.90;;;;;;7363500;32;20480;-63
2022/05/07 20:31:04;;;;;;;40.75;32.95;;;13.30;99.90;;;;;;7344932;32;20134;-66
2022/05/07 20:35:06;;;;;;;38.60;32.75;;;13.30;99.90;;;;;;7350264;32;20228;-66
2022/05/07 20:39:08;;;;;;;37.50;31.12;;;13.30;99.90;;;;;;7354612;32;20209;-67
2022/05/07 20:47:30;;;;;;;32.28;28.45;;;13.10;99.90;;;;;;7349070;32;20208;-64
2022/05/07 20:51:32;;;;;;;36.08;29.23;;;13.00;99.90;;;;;;7358259;32;20182;-65
2022/05/07 20:55:34;;;;;;;36.10;31.77;;;13.00;99.90;;;;;;7355420;32;20103;-64
2022/05/07 20:59:37;;;;;;;42.92;34.13;;;13.00;99.90;;;;;;7360553;32;20188;-64
2022/05/07 21:03:39;;;;;;;37.58;29.00;;;13.00;99.90;;;;;;7359613;32;20625;-64
2022/05/07 21:07:40;;;;;;;38.00;31.50;;;12.90;99.90;;;;;;7364726;32;20213;-64
2022/05/07 21:11:43;;;;;;;37.63;30.83;;;12.90;99.90;;;;;;7361461;32;20110;-66
2022/05/07 21:15:44;;;;;;;35.35;29.80;;;12.80;99.90;;;;;;7364062;32;20107;-66
2022/05/07 21:19:46;;;;;;;38.20;30.60;;;12.70;99.90;;;;;;7362524;32;20177;-65
2022/05/07 21:24:08;;;;;;;34.30;28.98;;;12.60;99.90;;;;;;7357498;32;20206;-62
2022/05/07 21:28:09;;;;;;;35.83;30.10;;;12.50;99.90;;;;;;7348769;32;20260;-61
2022/05/07 21:32:11;;;;;;;41.85;34.33;;;12.50;99.90;;;;;;7355055;32;20107;-61
2022/05/07 21:36:13;;;;;;;38.15;29.75;;;12.40;99.90;;;;;;7356404;32;20094;-62
2022/05/07 21:40:17;;;;;;;35.65;28.35;;;12.40;99.90;;;;;;7365159;32;20115;-62
2022/05/07 21:44:19;;;;;;;35.40;27.50;;;12.40;99.90;;;;;;7357852;32;20536;-62
2022/05/07 21:48:20;;;;;;;38.70;28.80;;;12.40;99.90;;;;;;7367185;32;20157;-62